Time;durP1;ratioP1;P1;durP2;ratioP2;P2;SDS_P1;SDS_P2;PMS_P1;PMS_P2;Temp;Humidity;BMP_temperature;BMP_pressure;BME280_temperature;BME280_humidity;BME280_pressure;Samples;Min_cycle;Max_cycle;Signal;HPM_P1;HPM_P2
2023/06/15 00:00:20;;;;;;;4.03;3.83;;;16.80;94.80;;;;;;5085397;28;20224;-53
2023/06/15 00:02:47;;;;;;;3.97;3.70;;;16.70;95.10;;;;;;5089665;28;20269;-53
2023/06/15 00:05:16;;;;;;;4.03;3.83;;;16.70;94.70;;;;;;5084097;28;20679;-53
2023/06/15 00:07:43;;;;;;;4.37;4.07;;;16.80;95.00;;;;;;5072524;28;20275;-53
2023/06/15 00:10:11;;;;;;;3.63;3.33;;;16.70;95.10;;;;;;5079373;28;20255;-53
2023/06/15 00:12:38;;;;;;;4.57;4.37;;;16.70;95.30;;;;;;5088415;28;20200;-53
2023/06/15 00:15:06;;;;;;;5.00;4.47;;;16.70;95.30;;;;;;5070259;28;20196;-52
2023/06/15 00:17:37;;;;;;;4.47;4.17;;;16.60;95.50;;;;;;5077317;28;20569;-53
2023/06/15 00:20:08;;;;;;;3.97;3.67;;;16.60;95.90;;;;;;5069999;28;20208;-53
2023/06/15 00:22:38;;;;;;;5.07;4.37;;;16.60;96.30;;;;;;5072145;28;20217;-53
2023/06/15 00:25:06;;;;;;;4.63;4.23;;;16.50;96.80;;;;;;5072125;28;20231;-53
2023/06/15 00:27:34;;;;;;;3.97;3.77;;;16.40;97.20;;;;;;5072340;28;20212;-52
2023/06/15 00:30:01;;;;;;;4.67;4.37;;;16.40;96.80;;;;;;5072898;28;20201;-53
2023/06/15 00:32:28;;;;;;;4.17;3.87;;;16.40;96.90;;;;;;5083714;28;20192;-52
2023/06/15 00:34:55;;;;;;;4.43;4.03;;;16.40;96.60;;;;;;5082024;28;20678;-52
2023/06/15 00:37:22;;;;;;;4.77;4.37;;;16.40;96.10;;;;;;5092235;28;20240;-52
2023/06/15 00:39:50;;;;;;;4.77;4.47;;;16.50;96.50;;;;;;5081288;28;20287;-53
2023/06/15 00:42:17;;;;;;;7.20;4.73;;;16.40;96.70;;;;;;5083468;28;20217;-52
2023/06/15 00:44:44;;;;;;;4.07;3.87;;;16.40;96.70;;;;;;5092057;28;20204;-53
2023/06/15 00:47:11;;;;;;;4.57;4.27;;;16.30;96.70;;;;;;5089359;28;20245;-52
2023/06/15 00:49:38;;;;;;;4.13;3.87;;;16.30;96.60;;;;;;5074815;28;20204;-52
2023/06/15 00:52:06;;;;;;;4.90;4.43;;;16.30;96.20;;;;;;5082763;28;20224;-53
2023/06/15 00:54:34;;;;;;;4.40;4.00;;;16.30;96.10;;;;;;5092209;28;20247;-53
2023/06/15 00:57:03;;;;;;;3.43;3.23;;;16.40;95.90;;;;;;5092135;28;20227;-52
2023/06/15 00:59:30;;;;;;;4.73;4.20;;;16.40;95.80;;;;;;5092058;28;20201;-52
2023/06/15 01:01:58;;;;;;;4.10;3.90;;;16.40;96.10;;;;;;5080457;28;20217;-53
2023/06/15 01:04:25;;;;;;;4.50;4.20;;;16.50;95.60;;;;;;5073902;28;20299;-52
2023/06/15 01:06:56;;;;;;;4.27;4.00;;;16.40;95.60;;;;;;5089613;28;20196;-52
2023/06/15 01:09:25;;;;;;;5.20;4.90;;;16.50;95.60;;;;;;5091978;28;20196;-53
2023/06/15 01:11:56;;;;;;;3.90;3.70;;;16.50;95.70;;;;;;5091690;28;20220;-53
2023/06/15 01:14:26;;;;;;;4.40;4.17;;;16.50;95.80;;;;;;5087169;28;20791;-52
2023/06/15 01:16:57;;;;;;;4.67;4.30;;;16.40;96.20;;;;;;5083071;28;20197;-52
2023/06/15 01:19:37;;;;;;;5.00;4.70;;;16.40;96.50;;;;;;5086869;28;20205;-52
2023/06/15 01:22:14;;;;;;;4.87;4.37;;;16.40;96.70;;;;;;5082399;28;20266;-52
2023/06/15 01:24:46;;;;;;;4.53;4.23;;;16.30;97.00;;;;;;5091678;28;20200;-52
2023/06/15 01:27:14;;;;;;;4.90;4.47;;;16.20;98.50;;;;;;5081791;28;20196;-53
2023/06/15 01:29:41;;;;;;;4.60;4.30;;;16.10;99.10;;;;;;5083361;28;20269;-53
2023/06/15 01:32:09;;;;;;;5.20;4.90;;;16.00;98.50;;;;;;5093198;28;20220;-53
2023/06/15 01:34:37;;;;;;;4.70;4.33;;;16.00;98.20;;;;;;5095840;28;20281;-52
2023/06/15 01:37:05;;;;;;;5.00;4.70;;;16.00;98.40;;;;;;5082594;28;20193;-53
2023/06/15 01:39:32;;;;;;;4.23;4.03;;;16.00;98.80;;;;;;5075009;28;20677;-53
2023/06/15 01:41:59;;;;;;;4.57;4.27;;;16.00;98.60;;;;;;5078630;28;20283;-53
2023/06/15 01:44:27;;;;;;;4.57;4.37;;;15.90;98.80;;;;;;5086660;28;20615;-52
2023/06/15 01:46:54;;;;;;;4.63;4.33;;;16.00;99.40;;;;;;5095653;28;20200;-53
2023/06/15 01:49:21;;;;;;;4.87;4.47;;;15.90;99.30;;;;;;5090344;28;20197;-53
2023/06/15 01:51:48;;;;;;;5.13;4.67;;;15.80;99.80;;;;;;5078897;28;20779;-52
2023/06/15 01:54:15;;;;;;;5.37;5.00;;;15.80;99.40;;;;;;5079294;28;20585;-53
2023/06/15 01:56:43;;;;;;;4.27;3.97;;;15.80;99.90;;;;;;5082947;28;20254;-53
2023/06/15 01:59:10;;;;;;;4.73;4.43;;;15.70;99.90;;;;;;5095223;28;20266;-52
2023/06/15 02:01:38;;;;;;;4.63;4.43;;;15.60;99.90;;;;;;5087406;28;20278;-53
2023/06/15 02:04:05;;;;;;;5.30;4.73;;;15.60;99.90;;;;;;5081056;28;20266;-53
2023/06/15 02:06:32;;;;;;;4.83;4.43;;;15.50;99.90;;;;;;5083111;28;20197;-53
2023/06/15 02:08:59;;;;;;;4.83;4.23;;;15.50;99.90;;;;;;5075847;28;20205;-53
2023/06/15 02:11:27;;;;;;;5.07;4.67;;;15.50;99.90;;;;;;5086528;28;20261;-53
2023/06/15 02:13:54;;;;;;;5.43;4.90;;;15.50;99.90;;;;;;5094916;28;20275;-53
2023/06/15 02:16:22;;;;;;;4.93;4.73;;;15.60;99.90;;;;;;5071101;28;20244;-52
2023/06/15 02:18:51;;;;;;;4.60;4.40;;;15.60;99.90;;;;;;5080280;28;20284;-53
2023/06/15 02:21:17;;;;;;;6.37;5.80;;;15.60;99.90;;;;;;5074666;28;20313;-53
2023/06/15 02:23:45;;;;;;;4.63;4.23;;;15.60;99.90;;;;;;5074154;28;20779;-53
2023/06/15 02:26:12;;;;;;;5.70;5.30;;;15.60;99.90;;;;;;5078266;28;20197;-52
2023/06/15 02:28:39;;;;;;;5.80;5.40;;;15.60;99.90;;;;;;5077528;28;20248;-53
2023/06/15 02:31:06;;;;;;;4.97;4.70;;;15.70;99.90;;;;;;5085545;28;20242;-52
2023/06/15 02:33:33;;;;;;;5.73;5.10;;;15.70;99.90;;;;;;5094315;28;20196;-52
2023/06/15 02:36:01;;;;;;;5.50;5.10;;;15.70;99.90;;;;;;5094682;28;20200;-53
2023/06/15 02:38:28;;;;;;;5.77;5.33;;;15.70;99.90;;;;;;5094678;28;20208;-53
2023/06/15 02:40:55;;;;;;;5.23;4.70;;;15.70;99.90;;;;;;5085239;28;20760;-53
2023/06/15 02:43:22;;;;;;;6.30;5.77;;;15.60;99.90;;;;;;5073074;28;20290;-53
2023/06/15 02:45:49;;;;;;;7.13;6.50;;;15.60;99.90;;;;;;5074146;28;20270;-53
2023/06/15 02:48:16;;;;;;;6.43;6.03;;;15.70;99.90;;;;;;5073191;28;20201;-53
2023/06/15 02:50:43;;;;;;;5.90;5.40;;;15.70;99.90;;;;;;5082166;28;20229;-52
2023/06/15 02:53:12;;;;;;;7.33;6.63;;;15.70;99.90;;;;;;5088863;28;20193;-52
2023/06/15 02:55:41;;;;;;;7.83;6.00;;;15.60;99.90;;;;;;5082333;28;20609;-53
2023/06/15 02:58:08;;;;;;;6.57;6.03;;;15.60;99.90;;;;;;5069891;28;20204;-53
2023/06/15 03:00:36;;;;;;;5.87;5.47;;;15.60;99.90;;;;;;5082623;28;20233;-53
2023/06/15 03:03:03;;;;;;;5.43;5.13;;;15.60;99.90;;;;;;5084847;28;20220;-52
2023/06/15 03:05:30;;;;;;;7.00;5.63;;;15.50;99.90;;;;;;5083859;28;20205;-53
2023/06/15 03:07:58;;;;;;;6.03;5.50;;;15.50;99.90;;;;;;5082860;28;20259;-53
2023/06/15 03:10:26;;;;;;;5.43;5.03;;;15.50;99.90;;;;;;5093768;28;20220;-52
2023/06/15 03:12:53;;;;;;;6.03;5.63;;;15.50;99.90;;;;;;5093723;28;20262;-52
2023/06/15 03:15:20;;;;;;;6.07;5.70;;;15.40;99.90;;;;;;5074162;28;20321;-53
2023/06/15 03:17:47;;;;;;;6.80;6.27;;;15.40;99.90;;;;;;5082882;28;20747;-53
2023/06/15 03:20:14;;;;;;;6.40;5.83;;;15.50;99.90;;;;;;5086116;28;20197;-52
2023/06/15 03:22:42;;;;;;;6.00;5.60;;;15.60;99.90;;;;;;5093459;28;20628;-52
2023/06/15 03:25:11;;;;;;;5.17;4.93;;;15.70;99.90;;;;;;5093451;28;20401;-53
2023/06/15 03:27:40;;;;;;;5.40;4.90;;;15.70;99.90;;;;;;5085488;28;20200;-52
2023/06/15 03:30:10;;;;;;;7.97;5.57;;;15.80;99.90;;;;;;5080722;28;20677;-53
2023/06/15 03:32:37;;;;;;;5.10;4.80;;;15.70;99.90;;;;;;5077026;28;20284;-53
2023/06/15 03:35:05;;;;;;;4.57;4.37;;;15.60;99.90;;;;;;5092881;28;20735;-53
2023/06/15 03:37:32;;;;;;;4.73;4.53;;;15.60;99.90;;;;;;5093263;28;20256;-53
2023/06/15 03:39:59;;;;;;;6.00;5.40;;;15.50;99.90;;;;;;5086707;28;20196;-53
2023/06/15 03:42:25;;;;;;;5.67;5.17;;;15.50;99.90;;;;;;5087138;28;20219;-53
2023/06/15 03:44:54;;;;;;;5.00;4.70;;;15.40;99.90;;;;;;5088348;28;20270;-52
2023/06/15 03:47:21;;;;;;;5.50;5.17;;;15.40;99.90;;;;;;5075419;28;20205;-52
2023/06/15 03:49:48;;;;;;;5.13;4.73;;;15.30;99.90;;;;;;5086815;28;20243;-53
2023/06/15 03:52:18;;;;;;;5.30;4.80;;;15.30;99.90;;;;;;5072236;28;20233;-53
2023/06/15 03:54:45;;;;;;;8.13;5.27;;;15.30;99.90;;;;;;5072486;28;20197;-52
2023/06/15 03:57:11;;;;;;;6.17;5.60;;;15.40;99.90;;;;;;5072486;28;20212;-52
2023/06/15 03:59:38;;;;;;;6.03;5.43;;;15.40;99.90;;;;;;5072644;28;20571;-53
2023/06/15 04:02:07;;;;;;;5.87;5.37;;;15.50;99.90;;;;;;5072499;28;20286;-52
2023/06/15 04:04:34;;;;;;;6.40;5.80;;;15.50;99.90;;;;;;5078533;28;20216;-53
2023/06/15 04:07:01;;;;;;;5.67;5.17;;;15.40;99.90;;;;;;5083968;28;20204;-52
2023/06/15 04:09:28;;;;;;;6.90;6.23;;;15.40;99.90;;;;;;5092759;28;20230;-52
2023/06/15 04:11:55;;;;;;;5.63;5.17;;;15.30;99.90;;;;;;5092784;28;20220;-53
2023/06/15 04:14:22;;;;;;;6.00;5.50;;;15.30;99.90;;;;;;5092620;28;20570;-53
2023/06/15 04:16:49;;;;;;;6.10;5.73;;;15.40;99.90;;;;;;5080574;28;20360;-52
2023/06/15 04:19:22;;;;;;;5.90;5.57;;;15.40;99.90;;;;;;5088742;28;20200;-52
2023/06/15 04:21:49;;;;;;;5.87;5.57;;;15.40;99.90;;;;;;5085976;28;20216;-52
2023/06/15 04:24:16;;;;;;;6.13;5.67;;;15.40;99.90;;;;;;5072028;28;20618;-52
2023/06/15 04:26:43;;;;;;;6.53;6.00;;;15.40;99.90;;;;;;5072105;28;20263;-52
2023/06/15 04:29:10;;;;;;;6.53;5.93;;;15.40;99.90;;;;;;5072068;28;20208;-52
2023/06/15 04:31:37;;;;;;;5.80;5.40;;;15.30;99.90;;;;;;5077041;28;20596;-52
2023/06/15 04:34:04;;;;;;;8.07;5.43;;;15.30;99.90;;;;;;5073296;28;20243;-52
2023/06/15 04:36:38;;;;;;;6.43;5.83;;;15.30;99.90;;;;;;5070730;28;20209;-52
2023/06/15 04:39:06;;;;;;;6.43;6.03;;;15.30;99.90;;;;;;5083470;28;20202;-52
2023/06/15 04:41:35;;;;;;;6.47;5.97;;;15.40;99.90;;;;;;5083776;28;20607;-52
2023/06/15 04:44:01;;;;;;;6.47;5.97;;;15.30;99.90;;;;;;5077939;28;20223;-52
2023/06/15 04:46:29;;;;;;;6.33;5.87;;;15.30;99.90;;;;;;5086180;28;20672;-52
2023/06/15 04:48:57;;;;;;;5.47;5.07;;;15.40;99.90;;;;;;5070537;28;20668;-52
2023/06/15 04:51:24;;;;;;;5.47;5.07;;;15.50;99.90;;;;;;5071245;28;20279;-52
2023/06/15 04:53:52;;;;;;;6.77;6.20;;;15.50;99.90;;;;;;5085197;28;20205;-52
2023/06/15 04:56:21;;;;;;;6.80;6.20;;;15.50;99.90;;;;;;5071573;28;20735;-52
2023/06/15 04:58:48;;;;;;;6.10;5.67;;;15.70;99.90;;;;;;5071696;28;20564;-52
2023/06/15 05:01:15;;;;;;;5.43;5.03;;;15.90;99.90;;;;;;5069685;28;20218;-52
2023/06/15 05:03:43;;;;;;;6.93;5.53;;;15.90;99.90;;;;;;5065891;28;20225;-53
2023/06/15 05:06:10;;;;;;;7.80;6.30;;;16.00;99.90;;;;;;5071256;28;20216;-52
2023/06/15 05:08:37;;;;;;;5.63;5.13;;;16.00;99.90;;;;;;5071507;28;20263;-52
2023/06/15 05:11:06;;;;;;;7.80;7.20;;;16.10;99.90;;;;;;5058801;28;20221;-52
2023/06/15 05:13:33;;;;;;;5.87;5.37;;;16.20;99.90;;;;;;5071286;28;20197;-52
2023/06/15 05:16:00;;;;;;;6.50;6.00;;;16.30;99.90;;;;;;5071486;28;20209;-52
2023/06/15 05:18:27;;;;;;;5.80;5.37;;;16.90;99.90;;;;;;5070781;28;20196;-53
2023/06/15 05:20:55;;;;;;;6.53;5.57;;;17.10;99.90;;;;;;5064941;28;20217;-52
2023/06/15 05:23:22;;;;;;;5.70;5.20;;;17.50;99.90;;;;;;5073520;28;20222;-52
2023/06/15 05:25:49;;;;;;;6.60;6.00;;;18.40;99.90;;;;;;5082632;28;20211;-52
2023/06/15 05:28:19;;;;;;;5.50;5.10;;;19.20;99.90;;;;;;5074008;28;20764;-52
2023/06/15 05:30:46;;;;;;;7.97;4.90;;;20.30;99.90;;;;;;5071558;28;20229;-52
2023/06/15 05:33:13;;;;;;;5.53;5.03;;;21.20;99.90;;;;;;5073015;28;20232;-52
2023/06/15 05:35:41;;;;;;;5.37;4.87;;;21.80;99.70;;;;;;5079514;28;20228;-52
2023/06/15 05:38:11;;;;;;;5.27;4.97;;;22.40;97.80;;;;;;5062048;28;20443;-52
2023/06/15 05:40:38;;;;;;;4.00;3.60;;;23.30;96.00;;;;;;5075931;28;20694;-52
2023/06/15 05:43:07;;;;;;;4.67;4.23;;;24.10;95.90;;;;;;5081784;28;20228;-52
2023/06/15 05:45:36;;;;;;;5.10;4.60;;;24.00;95.20;;;;;;5085422;28;20725;-53
2023/06/15 05:48:02;;;;;;;4.67;4.37;;;24.50;93.40;;;;;;5075256;28;20201;-52
2023/06/15 05:50:31;;;;;;;4.40;4.00;;;24.60;92.80;;;;;;5075660;28;20225;-53
2023/06/15 05:52:58;;;;;;;5.73;5.00;;;25.10;92.00;;;;;;5072290;28;20613;-53
2023/06/15 05:55:25;;;;;;;5.23;4.83;;;23.90;91.00;;;;;;5073679;28;20233;-53
2023/06/15 05:57:52;;;;;;;5.70;5.20;;;23.10;93.20;;;;;;5064420;28;20216;-53
2023/06/15 06:00:22;;;;;;;6.30;4.50;;;22.00;93.70;;;;;;5072728;28;20212;-52
2023/06/15 06:02:50;;;;;;;5.20;4.80;;;21.10;96.10;;;;;;5072202;28;20698;-52
2023/06/15 06:05:17;;;;;;;5.30;4.90;;;20.50;96.00;;;;;;5066008;28;20458;-55
2023/06/15 06:07:45;;;;;;;5.10;4.60;;;19.90;98.70;;;;;;5075134;28;20666;-61
2023/06/15 06:10:12;;;;;;;5.03;4.73;;;19.80;98.20;;;;;;5082530;28;20236;-57
2023/06/15 06:12:39;;;;;;;5.20;4.63;;;19.80;97.70;;;;;;5082644;28;20196;-57
2023/06/15 06:15:07;;;;;;;6.33;4.97;;;19.70;97.70;;;;;;5068971;28;20197;-59
2023/06/15 06:17:34;;;;;;;6.10;5.50;;;20.90;97.40;;;;;;5066608;28;20202;-61
2023/06/15 06:20:03;;;;;;;7.17;5.60;;;21.90;96.90;;;;;;5076867;28;20274;-61
2023/06/15 06:22:30;;;;;;;4.90;4.50;;;23.00;94.90;;;;;;5074390;28;20291;-63
2023/06/15 06:24:57;;;;;;;4.97;4.67;;;22.70;95.70;;;;;;5085840;28;20312;-61
2023/06/15 06:27:27;;;;;;;5.87;5.37;;;22.00;96.80;;;;;;5085021;22;20231;-70
2023/06/15 06:29:54;;;;;;;5.50;5.00;;;21.30;97.00;;;;;;5065405;28;20282;-57
2023/06/15 06:32:21;;;;;;;5.40;4.90;;;20.80;98.70;;;;;;5063030;28;20740;-56
2023/06/15 06:34:48;;;;;;;5.63;5.13;;;20.70;98.90;;;;;;5060906;28;20189;-57
2023/06/15 06:37:20;;;;;;;4.60;4.33;;;21.40;98.40;;;;;;5066173;28;20576;-57
2023/06/15 06:39:47;;;;;;;5.77;5.47;;;21.70;98.10;;;;;;5052687;28;20201;-58
2023/06/15 06:42:14;;;;;;;5.23;4.87;;;21.60;97.20;;;;;;5050461;28;20213;-58
2023/06/15 06:44:41;;;;;;;5.73;5.33;;;20.90;98.20;;;;;;5052409;28;20225;-57
2023/06/15 06:47:08;;;;;;;6.60;5.40;;;20.70;98.30;;;;;;5053310;28;20218;-58
2023/06/15 06:49:35;;;;;;;5.07;4.60;;;20.50;97.80;;;;;;5051146;28;20256;-58
2023/06/15 06:52:02;;;;;;;5.77;5.27;;;20.40;98.60;;;;;;5044787;28;20955;-59
2023/06/15 06:54:31;;;;;;;5.37;5.00;;;20.80;99.30;;;;;;5055633;28;20272;-57
2023/06/15 06:56:58;;;;;;;6.70;5.77;;;21.90;99.90;;;;;;5052319;28;20202;-57
2023/06/15 06:59:26;;;;;;;8.87;4.80;;;22.80;98.20;;;;;;5050754;28;20216;-57
2023/06/15 07:01:53;;;;;;;5.13;4.73;;;24.10;97.20;;;;;;5053170;28;20710;-58
2023/06/15 07:04:20;;;;;;;5.77;5.50;;;25.40;95.70;;;;;;5060592;28;20232;-58
2023/06/15 07:06:47;;;;;;;6.30;5.90;;;26.10;93.30;;;;;;5051690;28;20252;-58
2023/06/15 07:09:14;;;;;;;6.03;5.60;;;26.10;93.60;;;;;;5050350;28;20293;-57
2023/06/15 07:11:43;;;;;;;7.00;6.47;;;26.20;93.50;;;;;;5052519;28;20202;-58
2023/06/15 07:14:10;;;;;;;6.13;5.73;;;26.50;91.60;;;;;;5034414;28;20199;-58
2023/06/15 07:16:37;;;;;;;6.33;5.83;;;26.70;92.00;;;;;;5052916;28;20252;-59
2023/06/15 07:19:03;;;;;;;6.33;5.93;;;25.70;93.30;;;;;;5050597;28;20276;-58
2023/06/15 07:21:30;;;;;;;5.73;5.33;;;25.50;93.40;;;;;;5050828;28;20579;-58
2023/06/15 07:23:57;;;;;;;5.97;5.57;;;25.80;94.00;;;;;;5052127;28;20194;-58
2023/06/15 07:26:24;;;;;;;6.40;5.90;;;26.20;93.00;;;;;;5042755;28;20268;-57
2023/06/15 07:28:53;;;;;;;7.17;6.43;;;27.30;91.70;;;;;;5050227;28;20232;-58
2023/06/15 07:31:20;;;;;;;5.63;5.23;;;28.10;90.70;;;;;;5051696;28;20201;-58
2023/06/15 07:33:47;;;;;;;6.63;6.17;;;28.60;90.70;;;;;;5052242;28;20584;-57
2023/06/15 07:36:14;;;;;;;8.93;5.70;;;28.60;90.80;;;;;;5051172;28;22009;-59
2023/06/15 07:38:41;;;;;;;6.30;5.80;;;28.50;91.10;;;;;;5044089;28;20214;-58
2023/06/15 07:41:08;;;;;;;6.10;5.70;;;28.60;89.70;;;;;;5052735;28;20205;-58
2023/06/15 07:43:35;;;;;;;5.60;5.10;;;27.80;88.50;;;;;;5052381;28;20201;-57
2023/06/15 07:46:03;;;;;;;6.30;5.87;;;27.60;91.10;;;;;;5052498;28;20225;-59
2023/06/15 07:48:31;;;;;;;5.63;5.22;;;27.80;91.00;;;;;;5052435;28;20703;-58
2023/06/15 07:50:58;;;;;;;5.78;5.47;;;28.70;90.10;;;;;;5051965;28;20198;-58
2023/06/15 07:53:25;;;;;;;6.32;5.82;;;28.60;90.00;;;;;;5051589;28;20202;-58
2023/06/15 07:55:52;;;;;;;6.15;5.85;;;29.10;90.70;;;;;;5052401;28;20189;-58
2023/06/15 07:58:20;;;;;;;5.38;5.00;;;29.60;87.00;;;;;;5052318;28;20244;-58
2023/06/15 08:00:47;;;;;;;6.78;6.22;;;30.40;86.90;;;;;;5052256;28;20625;-58
2023/06/15 08:03:16;;;;;;;6.25;5.88;;;29.60;85.00;;;;;;5052038;28;20692;-58
2023/06/15 08:05:42;;;;;;;6.35;5.90;;;29.80;84.90;;;;;;5052304;28;20226;-59
2023/06/15 08:08:10;;;;;;;8.10;5.45;;;30.00;88.60;;;;;;5049875;28;20221;-58
2023/06/15 08:10:37;;;;;;;6.07;5.63;;;30.30;85.80;;;;;;5052075;28;20193;-58
2023/06/15 08:13:04;;;;;;;6.22;5.53;;;30.70;84.60;;;;;;5051838;28;20296;-58
2023/06/15 08:15:31;;;;;;;6.80;5.63;;;30.70;88.30;;;;;;5051939;28;20193;-58
2023/06/15 08:17:58;;;;;;;6.32;5.60;;;30.20;90.00;;;;;;5052173;28;20218;-58
2023/06/15 08:20:27;;;;;;;6.18;5.85;;;30.40;83.90;;;;;;5051297;28;20620;-58
2023/06/15 08:22:54;;;;;;;6.70;6.28;;;30.30;83.80;;;;;;5044038;28;20451;-58
2023/06/15 08:25:21;;;;;;;6.00;5.70;;;30.40;86.00;;;;;;5048817;28;20214;-57
2023/06/15 08:27:48;;;;;;;5.47;5.28;;;29.90;87.40;;;;;;5050172;28;20323;-58
2023/06/15 08:30:15;;;;;;;7.15;6.65;;;28.90;88.30;;;;;;5046492;28;20206;-57
2023/06/15 08:32:42;;;;;;;5.43;5.22;;;28.40;90.30;;;;;;5047824;28;20255;-58
2023/06/15 08:35:10;;;;;;;6.18;5.78;;;27.90;89.70;;;;;;5050279;28;20221;-58
2023/06/15 08:37:39;;;;;;;5.93;5.47;;;28.60;91.40;;;;;;5050301;28;20257;-58
2023/06/15 08:40:08;;;;;;;6.88;6.38;;;29.00;88.30;;;;;;5048481;28;20256;-58
2023/06/15 08:42:35;;;;;;;5.88;5.53;;;29.70;88.70;;;;;;5050399;28;20220;-58
2023/06/15 08:45:07;;;;;;;5.65;5.45;;;29.90;88.00;;;;;;5050180;28;20268;-57
2023/06/15 08:47:35;;;;;;;6.38;5.82;;;28.90;90.40;;;;;;5050988;28;20222;-58
2023/06/15 08:50:03;;;;;;;6.53;6.00;;;28.70;90.40;;;;;;5051287;28;20197;-58
2023/06/15 08:52:33;;;;;;;6.87;6.37;;;28.30;91.00;;;;;;5050703;28;20197;-58
2023/06/15 08:55:03;;;;;;;6.57;6.07;;;28.40;90.60;;;;;;5051152;28;20655;-58
2023/06/15 08:57:32;;;;;;;7.38;6.72;;;28.50;89.90;;;;;;5042127;28;20236;-58
2023/06/15 08:59:59;;;;;;;6.63;6.17;;;28.60;87.90;;;;;;5051175;28;20209;-57
2023/06/15 09:02:28;;;;;;;10.07;5.70;;;28.10;87.60;;;;;;5050913;28;20209;-59
2023/06/15 09:04:56;;;;;;;6.77;6.03;;;28.00;90.40;;;;;;5050878;28;20244;-57
2023/06/15 09:07:25;;;;;;;5.60;5.30;;;28.10;90.70;;;;;;5050849;28;20221;-57
2023/06/15 09:10:16;;;;;;;4.67;4.33;;;27.70;90.70;;;;;;5051024;28;20232;-59
2023/06/15 09:12:45;;;;;;;5.17;4.87;;;28.50;87.80;;;;;;5049756;28;20252;-58
2023/06/15 09:15:16;;;;;;;4.73;4.53;;;28.00;84.40;;;;;;5035655;28;20609;-57
2023/06/15 09:17:43;;;;;;;5.97;5.60;;;28.20;84.30;;;;;;5050741;28;20221;-67
2023/06/15 09:20:11;;;;;;;4.97;4.77;;;28.60;85.70;;;;;;5048503;28;20260;-66
2023/06/15 09:22:43;;;;;;;5.50;5.10;;;28.50;86.10;;;;;;5050465;28;20198;-65
2023/06/15 09:25:17;;;;;;;4.93;4.47;;;28.30;84.60;;;;;;5050781;28;20217;-68
2023/06/15 09:27:55;;;;;;;4.60;4.37;;;28.40;86.50;;;;;;5049712;28;20317;-67
2023/06/15 09:30:23;;;;;;;4.93;4.67;;;28.50;83.80;;;;;;5042239;28;20212;-66
2023/06/15 09:32:49;;;;;;;5.00;4.68;;;28.40;83.20;;;;;;5050130;28;20603;-67
2023/06/15 09:35:16;;;;;;;4.80;4.60;;;29.10;86.40;;;;;;5050667;28;20562;-69
2023/06/15 09:37:43;;;;;;;5.15;4.93;;;29.20;84.30;;;;;;5050625;28;20707;-59
2023/06/15 09:40:12;;;;;;;4.75;4.55;;;29.40;84.50;;;;;;5050749;28;20675;-59
2023/06/15 09:42:43;;;;;;;4.80;4.60;;;29.20;83.70;;;;;;5049562;28;20578;-60
2023/06/15 09:45:10;;;;;;;5.78;5.38;;;29.20;79.50;;;;;;5050679;28;20252;-59
2023/06/15 09:47:39;;;;;;;4.45;4.15;;;29.70;84.30;;;;;;5050286;28;20308;-59
2023/06/15 09:50:11;;;;;;;5.07;4.53;;;29.80;83.40;;;;;;5050760;28;20233;-59
2023/06/15 09:52:43;;;;;;;4.60;4.30;;;29.60;80.90;;;;;;5049668;28;20325;-59
2023/06/15 09:55:11;;;;;;;6.28;5.60;;;29.50;83.30;;;;;;5045883;28;20202;-59
2023/06/15 09:57:41;;;;;;;4.72;4.43;;;29.20;81.20;;;;;;5054330;28;20308;-59
2023/06/15 10:00:12;;;;;;;5.72;4.32;;;29.10;82.40;;;;;;5054417;28;20297;-59
2023/06/15 10:02:40;;;;;;;5.00;4.72;;;29.50;84.40;;;;;;5054169;28;20205;-59
2023/06/15 10:05:14;;;;;;;4.55;4.28;;;29.00;80.50;;;;;;5054009;28;20200;-60
2023/06/15 10:07:49;;;;;;;4.25;3.88;;;29.50;79.60;;;;;;5045218;28;20703;-73
2023/06/15 10:10:19;;;;;;;4.47;4.22;;;30.20;78.90;;;;;;5046582;28;20193;-64
2023/06/15 10:12:52;;;;;;;4.93;4.43;;;30.60;81.10;;;;;;5053904;28;20197;-68
2023/06/15 10:15:21;;;;;;;4.22;3.92;;;31.10;75.00;;;;;;5054224;28;20194;-72
2023/06/15 10:17:52;;;;;;;3.78;3.67;;;30.10;75.00;;;;;;5053967;28;20563;-73
2023/06/15 10:20:21;;;;;;;4.13;3.83;;;30.20;79.20;;;;;;5052917;28;20691;-68
2023/06/15 10:22:53;;;;;;;3.40;3.20;;;30.00;79.80;;;;;;5045171;28;20257;-61
2023/06/15 10:25:23;;;;;;;3.78;3.55;;;30.50;79.30;;;;;;5053690;28;20675;-67
2023/06/15 10:27:50;;;;;;;4.10;3.80;;;30.30;76.40;;;;;;5053775;28;20743;-66
2023/06/15 10:30:29;;;;;;;3.63;2.60;;;29.90;74.60;;;;;;5053803;28;20625;-65
2023/06/15 10:33:04;;;;;;;5.28;4.50;;;29.60;70.50;;;;;;5053652;28;20202;-68
2023/06/15 10:35:35;;;;;;;3.72;3.63;;;30.20;76.80;;;;;;5053657;28;20201;-66
2023/06/15 10:38:20;;;;;;;3.40;3.25;;;30.30;67.00;;;;;;5053664;28;20217;-65
2023/06/15 10:40:49;;;;;;;3.63;3.42;;;30.40;61.60;;;;;;5046119;28;20272;-67
2023/06/15 10:43:19;;;;;;;3.95;3.28;;;30.70;61.50;;;;;;5048512;28;20458;-57
2023/06/15 10:45:48;;;;;;;3.70;3.55;;;30.50;67.50;;;;;;5053437;28;20224;-59
2023/06/15 10:48:23;;;;;;;3.35;3.25;;;29.90;67.00;;;;;;5053460;28;20296;-57
2023/06/15 10:50:51;;;;;;;3.83;3.67;;;30.10;67.00;;;;;;5053152;28;20577;-59
2023/06/15 10:53:26;;;;;;;4.05;3.85;;;30.00;65.80;;;;;;5053380;28;20284;-59
2023/06/15 10:55:55;;;;;;;4.03;3.92;;;29.80;63.90;;;;;;5051314;28;20575;-60
2023/06/15 10:58:22;;;;;;;3.60;3.50;;;30.00;71.30;;;;;;5045234;28;20300;-60
2023/06/15 11:01:08;;;;;;;3.85;3.65;;;30.00;76.80;;;;;;5052897;28;20256;-59
2023/06/15 11:03:36;;;;;;;4.35;3.95;;;29.90;66.30;;;;;;5051659;28;20240;-69
2023/06/15 11:06:06;;;;;;;3.75;3.55;;;29.80;71.70;;;;;;5032558;28;20222;-71
2023/06/15 11:08:41;;;;;;;4.05;3.85;;;29.20;70.80;;;;;;5043953;28;20236;-67
2023/06/15 11:11:11;;;;;;;3.75;3.53;;;28.40;69.10;;;;;;5053177;28;20209;-68
2023/06/15 11:13:59;;;;;;;4.93;4.72;;;27.90;70.40;;;;;;5050378;28;20220;-68
2023/06/15 11:16:30;;;;;;;5.20;3.83;;;28.20;70.40;;;;;;5047551;28;20277;-65
2023/06/15 11:18:59;;;;;;;4.47;4.27;;;28.00;77.70;;;;;;5052980;28;20222;-58
2023/06/15 11:21:29;;;;;;;4.07;3.87;;;28.00;77.90;;;;;;5052723;28;20202;-68
2023/06/15 11:23:57;;;;;;;4.40;4.20;;;28.00;74.90;;;;;;5052334;28;20194;-67
2023/06/15 11:26:28;;;;;;;4.57;4.10;;;28.20;74.30;;;;;;5052441;28;20275;-69
2023/06/15 11:28:58;;;;;;;5.97;4.40;;;27.80;76.60;;;;;;5049776;28;20793;-67
2023/06/15 11:31:29;;;;;;;4.07;3.97;;;27.60;73.70;;;;;;5046583;28;20194;-66
2023/06/15 11:33:57;;;;;;;6.53;4.35;;;27.60;73.50;;;;;;5032172;28;20208;-69
2023/06/15 11:36:25;;;;;;;7.23;4.27;;;27.40;73.50;;;;;;5032438;28;20202;-70
2023/06/15 11:38:53;;;;;;;4.30;3.97;;;27.30;80.40;;;;;;5032675;28;20233;-70
2023/06/15 11:41:20;;;;;;;6.88;4.32;;;27.50;76.90;;;;;;5033349;28;20226;-70
2023/06/15 11:43:49;;;;;;;3.97;3.67;;;27.50;79.70;;;;;;5032227;28;20631;-71
2023/06/15 11:46:17;;;;;;;4.47;4.27;;;27.50;76.50;;;;;;5046994;28;20245;-68
2023/06/15 11:48:46;;;;;;;3.50;3.30;;;27.70;71.60;;;;;;5051987;28;20222;-67
2023/06/15 11:51:15;;;;;;;5.63;4.40;;;27.70;79.80;;;;;;5052134;28;20694;-69
2023/06/15 11:53:43;;;;;;;4.53;3.92;;;27.50;75.80;;;;;;5052018;28;20206;-68
2023/06/15 11:56:12;;;;;;;4.13;3.93;;;27.10;72.60;;;;;;5051990;28;20205;-69
2023/06/15 11:58:39;;;;;;;4.60;4.25;;;26.90;76.60;;;;;;5050472;28;20240;-69
2023/06/15 12:01:07;;;;;;;4.33;3.93;;;27.00;75.40;;;;;;5040523;28;20225;-67
2023/06/15 12:03:37;;;;;;;4.23;4.03;;;26.90;74.60;;;;;;5051557;28;20255;-66
2023/06/15 12:06:05;;;;;;;4.53;4.23;;;27.00;75.90;;;;;;5045324;28;20649;-67
2023/06/15 12:08:33;;;;;;;4.70;4.30;;;27.10;78.30;;;;;;5046943;28;20699;-71
2023/06/15 12:11:00;;;;;;;4.53;4.30;;;27.10;73.60;;;;;;5051861;28;20244;-69
2023/06/15 12:13:28;;;;;;;4.23;4.03;;;27.10;77.50;;;;;;5050779;28;20202;-67
2023/06/15 12:15:55;;;;;;;4.60;4.10;;;26.90;70.80;;;;;;5042407;28;20206;-69
2023/06/15 12:18:23;;;;;;;3.67;3.40;;;26.80;80.00;;;;;;5051558;28;20297;-67
2023/06/15 12:20:50;;;;;;;3.87;3.57;;;26.80;74.60;;;;;;5051791;28;20248;-66
2023/06/15 12:23:29;;;;;;;4.40;4.20;;;26.90;77.50;;;;;;5047556;28;20244;-67
2023/06/15 12:25:57;;;;;;;4.27;3.73;;;26.90;79.00;;;;;;5051330;28;20624;-67
2023/06/15 12:28:25;;;;;;;4.30;4.10;;;26.90;79.00;;;;;;5051306;28;20264;-68
2023/06/15 12:30:57;;;;;;;3.80;3.63;;;26.90;77.40;;;;;;5048273;28;20212;-70
2023/06/15 12:33:26;;;;;;;3.63;3.53;;;26.60;74.90;;;;;;5044988;28;20206;-60
2023/06/15 12:35:55;;;;;;;5.00;4.50;;;26.40;77.40;;;;;;5051411;28;20197;-67
2023/06/15 12:38:24;;;;;;;5.50;4.50;;;26.30;73.30;;;;;;5051207;28;20264;-70
2023/06/15 12:40:53;;;;;;;4.10;3.83;;;26.20;71.40;;;;;;5051322;28;20543;-71
2023/06/15 12:43:21;;;;;;;4.77;4.37;;;26.20;75.70;;;;;;5050998;28;20597;-69
2023/06/15 12:45:48;;;;;;;4.60;4.20;;;26.30;77.80;;;;;;5051343;28;20201;-69
2023/06/15 12:48:15;;;;;;;4.53;4.33;;;26.20;80.70;;;;;;5049440;28;20283;-68
2023/06/15 12:50:42;;;;;;;4.37;4.17;;;26.10;74.70;;;;;;5050848;28;20741;-68
2023/06/15 12:53:09;;;;;;;4.20;3.93;;;26.00;73.60;;;;;;5051074;28;20577;-68